sensor_id;sensor_type;location;lat;lon;timestamp;pressure;altitude;pressure_sealevel;temperature;humidity
30614;BME280;17381;51.690;5.270;2023-05-21T00:02:00;101868.22;;;16.04;55.86
30614;BME280;17381;51.690;5.270;2023-05-21T00:04:41;101859.47;;;16.00;55.87
30614;BME280;17381;51.690;5.270;2023-05-21T00:07:31;101844.69;;;15.93;56.04
30614;BME280;17381;51.690;5.270;2023-05-21T00:11:27;101849.19;;;15.89;56.21
30614;BME280;17381;51.690;5.270;2023-05-21T00:14:12;101845.72;;;15.87;56.42
30614;BME280;17381;51.690;5.270;2023-05-21T00:17:00;101851.00;;;15.89;56.44
30614;BME280;17381;51.690;5.270;2023-05-21T00:20:07;101848.34;;;15.89;56.90
30614;BME280;17381;51.690;5.270;2023-05-21T00:23:00;101840.34;;;15.90;56.78
30614;BME280;17381;51.690;5.270;2023-05-21T00:25:55;101851.84;;;15.89;57.14
30614;BME280;17381;51.690;5.270;2023-05-21T00:28:44;101837.06;;;15.82;57.19
30614;BME280;17381;51.690;5.270;2023-05-21T00:31:22;101834.16;;;15.90;57.40
30614;BME280;17381;51.690;5.270;2023-05-21T00:34:30;101842.91;;;15.94;57.52
30614;BME280;17381;51.690;5.270;2023-05-21T00:37:29;101778.78;;;15.53;57.43
30614;BME280;17381;51.690;5.270;2023-05-21T00:41:02;101755.84;;;15.52;57.43
30614;BME280;17381;51.690;5.270;2023-05-21T00:43:54;101826.91;;;15.95;57.46
30614;BME280;17381;51.690;5.270;2023-05-21T00:46:49;101827.75;;;15.97;57.30
30614;BME280;17381;51.690;5.270;2023-05-21T00:49:36;101751.34;;;15.54;57.54
30614;BME280;17381;51.690;5.270;2023-05-21T00:52:13;101824.22;;;15.97;57.61
30614;BME280;17381;51.690;5.270;2023-05-21T00:55:09;101824.22;;;15.97;57.62
30614;BME280;17381;51.690;5.270;2023-05-21T00:57:55;101826.66;;;16.03;57.72
30614;BME280;17381;51.690;5.270;2023-05-21T01:00:38;101831.13;;;16.02;57.66
30614;BME280;17381;51.690;5.270;2023-05-21T01:03:11;101803.38;;;15.86;57.76
30614;BME280;17381;51.690;5.270;2023-05-21T01:06:03;101837.09;;;16.09;58.00
30614;BME280;17381;51.690;5.270;2023-05-21T01:08:56;101825.78;;;16.04;57.63
30614;BME280;17381;51.690;5.270;2023-05-21T01:11:57;101826.38;;;16.12;57.50
30614;BME280;17381;51.690;5.270;2023-05-21T01:14:48;101830.16;;;16.05;57.53
30614;BME280;17381;51.690;5.270;2023-05-21T01:17:58;101819.59;;;16.03;57.78
30614;BME280;17381;51.690;5.270;2023-05-21T01:20:48;101823.13;;;16.04;57.92
30614;BME280;17381;51.690;5.270;2023-05-21T01:23:25;101821.06;;;16.12;57.58
30614;BME280;17381;51.690;5.270;2023-05-21T01:26:23;101818.47;;;16.10;57.93
30614;BME280;17381;51.690;5.270;2023-05-21T01:29:25;101813.41;;;16.03;57.91
30614;BME280;17381;51.690;5.270;2023-05-21T01:32:14;101810.88;;;16.00;57.61
30614;BME280;17381;51.690;5.270;2023-05-21T01:35:31;101823.16;;;16.02;57.87
30614;BME280;17381;51.690;5.270;2023-05-21T01:38:42;101824.13;;;16.00;57.95
30614;BME280;17381;51.690;5.270;2023-05-21T01:41:23;101811.94;;;15.94;57.88
30614;BME280;17381;51.690;5.270;2023-05-21T01:44:34;101814.72;;;15.89;58.15
30614;BME280;17381;51.690;5.270;2023-05-21T01:47:31;101807.09;;;15.80;58.32
30614;BME280;17381;51.690;5.270;2023-05-21T01:50:51;101816.88;;;15.78;58.46
30614;BME280;17381;51.690;5.270;2023-05-21T01:53:26;101812.66;;;15.71;58.52
30614;BME280;17381;51.690;5.270;2023-05-21T01:56:04;101811.81;;;15.70;58.46
30614;BME280;17381;51.690;5.270;2023-05-21T01:59:00;101800.50;;;15.64;58.72
30614;BME280;17381;51.690;5.270;2023-05-21T02:01:38;101794.53;;;15.57;58.78
30614;BME280;17381;51.690;5.270;2023-05-21T02:04:32;101804.09;;;15.61;59.16
30614;BME280;17381;51.690;5.270;2023-05-21T02:07:10;101812.13;;;15.60;59.18
30614;BME280;17381;51.690;5.270;2023-05-21T02:10:22;101814.94;;;15.54;59.63
30614;BME280;17381;51.690;5.270;2023-05-21T02:13:11;101813.47;;;15.45;59.66
30614;BME280;17381;51.690;5.270;2023-05-21T02:15:57;101804.56;;;15.46;59.73
30614;BME280;17381;51.690;5.270;2023-05-21T02:18:57;101804.56;;;15.46;60.05
30614;BME280;17381;51.690;5.270;2023-05-21T02:21:57;101805.63;;;15.40;60.12
30614;BME280;17381;51.690;5.270;2023-05-21T02:24:52;101811.00;;;15.39;60.10
30614;BME280;17381;51.690;5.270;2023-05-21T02:27:36;101803.06;;;15.39;60.54
30614;BME280;17381;51.690;5.270;2023-05-21T02:31:01;101802.97;;;15.42;60.28
30614;BME280;17381;51.690;5.270;2023-05-21T02:33:44;101743.09;;;15.07;60.37
30614;BME280;17381;51.690;5.270;2023-05-21T02:36:22;101803.63;;;15.48;60.40
30614;BME280;17381;51.690;5.270;2023-05-21T02:39:30;101800.06;;;15.49;60.39
30614;BME280;17381;51.690;5.270;2023-05-21T02:42:13;101800.84;;;15.53;60.08
30614;BME280;17381;51.690;5.270;2023-05-21T02:44:45;101801.69;;;15.54;60.43
30614;BME280;17381;51.690;5.270;2023-05-21T02:47:39;101799.84;;;15.57;60.11
30614;BME280;17381;51.690;5.270;2023-05-21T02:50:23;101792.84;;;15.55;60.14
30614;BME280;17381;51.690;5.270;2023-05-21T02:53:51;101803.44;;;15.55;60.15
30614;BME280;17381;51.690;5.270;2023-05-21T02:56:17;101778.16;;;15.44;60.10
30614;BME280;17381;51.690;5.270;2023-05-21T02:58:43;101793.00;;;15.48;60.26
30614;BME280;17381;51.690;5.270;2023-05-21T03:01:24;101801.69;;;15.54;60.30
30614;BME280;17381;51.690;5.270;2023-05-21T03:04:23;101792.28;;;15.43;60.24
30614;BME280;17381;51.690;5.270;2023-05-21T03:07:05;101779.34;;;15.34;60.27
30614;BME280;17381;51.690;5.270;2023-05-21T03:09:44;101796.63;;;15.46;60.57
30614;BME280;17381;51.690;5.270;2023-05-21T03:12:45;101788.84;;;15.41;60.21
30614;BME280;17381;51.690;5.270;2023-05-21T03:15:41;101792.50;;;15.37;60.67
30614;BME280;17381;51.690;5.270;2023-05-21T03:18:33;101781.38;;;15.26;60.71
30614;BME280;17381;51.690;5.270;2023-05-21T03:21:11;101777.88;;;15.24;60.64
30614;BME280;17381;51.690;5.270;2023-05-21T03:23:53;101784.88;;;15.26;61.03
30614;BME280;17381;51.690;5.270;2023-05-21T03:26:56;101786.66;;;15.26;61.07
30614;BME280;17381;51.690;5.270;2023-05-21T03:29:49;101759.59;;;15.15;60.84
30614;BME280;17381;51.690;5.270;2023-05-21T03:32:26;101772.69;;;15.21;61.26
30614;BME280;17381;51.690;5.270;2023-05-21T03:38:24;101748.25;;;15.11;61.08
30614;BME280;17381;51.690;5.270;2023-05-21T03:41:02;101771.88;;;15.19;61.28
30614;BME280;17381;51.690;5.270;2023-05-21T03:43:55;101774.50;;;15.19;61.21
30614;BME280;17381;51.690;5.270;2023-05-21T03:46:31;101774.41;;;15.22;61.53
30614;BME280;17381;51.690;5.270;2023-05-21T03:49:29;101777.06;;;15.22;61.74
30614;BME280;17381;51.690;5.270;2023-05-21T03:52:08;101763.91;;;15.19;61.64
30614;BME280;17381;51.690;5.270;2023-05-21T03:55:03;101780.44;;;15.27;61.77
30614;BME280;17381;51.690;5.270;2023-05-21T03:58:01;101780.41;;;15.29;61.61
30614;BME280;17381;51.690;5.270;2023-05-21T04:01:05;101771.63;;;15.26;61.53
30614;BME280;17381;51.690;5.270;2023-05-21T04:03:43;101769.81;;;15.29;61.50
30614;BME280;17381;51.690;5.270;2023-05-21T04:06:34;101768.91;;;15.28;61.72
30614;BME280;17381;51.690;5.270;2023-05-21T04:09:15;101774.06;;;15.33;61.91
30614;BME280;17381;51.690;5.270;2023-05-21T04:12:02;101781.16;;;15.32;61.73
30614;BME280;17381;51.690;5.270;2023-05-21T04:15:15;101782.00;;;15.34;61.67
30614;BME280;17381;51.690;5.270;2023-05-21T04:18:13;101782.03;;;15.33;61.95
30614;BME280;17381;51.690;5.270;2023-05-21T04:21:28;101786.47;;;15.32;61.74
30614;BME280;17381;51.690;5.270;2023-05-21T04:24:18;101788.38;;;15.27;62.29
30614;BME280;17381;51.690;5.270;2023-05-21T04:27:38;101769.31;;;15.16;62.03
30614;BME280;17381;51.690;5.270;2023-05-21T04:30:41;101783.19;;;15.24;62.19
30614;BME280;17381;51.690;5.270;2023-05-21T04:33:21;101783.19;;;15.24;62.39
30614;BME280;17381;51.690;5.270;2023-05-21T04:36:08;101773.47;;;15.23;62.33
30614;BME280;17381;51.690;5.270;2023-05-21T04:39:04;101773.59;;;15.20;62.34
30614;BME280;17381;51.690;5.270;2023-05-21T04:41:49;101782.34;;;15.22;62.57
30614;BME280;17381;51.690;5.270;2023-05-21T04:45:04;101771.88;;;15.19;62.66
30614;BME280;17381;51.690;5.270;2023-05-21T04:48:02;101777.19;;;15.17;62.73
30614;BME280;17381;51.690;5.270;2023-05-21T04:50:58;101779.72;;;15.22;62.95
30614;BME280;17381;51.690;5.270;2023-05-21T04:53:52;101772.59;;;15.24;62.76
30614;BME280;17381;51.690;5.270;2023-05-21T04:56:52;101762.25;;;15.15;62.71
30614;BME280;17381;51.690;5.270;2023-05-21T04:59:46;101786.66;;;15.26;62.96
30614;BME280;17381;51.690;5.270;2023-05-21T05:02:27;101776.22;;;15.20;62.98
30614;BME280;17381;51.690;5.270;2023-05-21T05:05:47;101786.81;;;15.20;63.35
30614;BME280;17381;51.690;5.270;2023-05-21T05:08:31;101784.25;;;15.18;63.28
30614;BME280;17381;51.690;5.270;2023-05-21T05:11:33;101786.00;;;15.18;63.17
30614;BME280;17381;51.690;5.270;2023-05-21T05:14:24;101784.25;;;15.18;63.12
30614;BME280;17381;51.690;5.270;2023-05-21T05:17:07;101716.56;;;14.78;63.05
30614;BME280;17381;51.690;5.270;2023-05-21T05:19:54;101786.09;;;15.15;63.70
30614;BME280;17381;51.690;5.270;2023-05-21T05:22:33;101794.00;;;15.16;63.42
30614;BME280;17381;51.690;5.270;2023-05-21T05:25:10;101691.59;;;14.57;63.84
30614;BME280;17381;51.690;5.270;2023-05-21T05:27:54;101782.47;;;15.17;63.57
30614;BME280;17381;51.690;5.270;2023-05-21T05:30:38;101781.53;;;15.20;64.03
30614;BME280;17381;51.690;5.270;2023-05-21T05:33:33;101779.81;;;15.19;63.92
30614;BME280;17381;51.690;5.270;2023-05-21T05:39:20;101783.19;;;15.24;64.08
30614;BME280;17381;51.690;5.270;2023-05-21T05:42:05;101780.63;;;15.21;64.20
30614;BME280;17381;51.690;5.270;2023-05-21T05:44:47;101788.38;;;15.27;64.24
30614;BME280;17381;51.690;5.270;2023-05-21T05:47:25;101789.25;;;15.27;64.66
30614;BME280;17381;51.690;5.270;2023-05-21T05:50:06;101785.59;;;15.32;64.61
30614;BME280;17381;51.690;5.270;2023-05-21T05:52:57;101782.88;;;15.33;64.78
30614;BME280;17381;51.690;5.270;2023-05-21T05:56:07;101783.78;;;15.34;64.61
30614;BME280;17381;51.690;5.270;2023-05-21T05:59:05;101782.84;;;15.35;64.73
30614;BME280;17381;51.690;5.270;2023-05-21T06:01:35;101788.19;;;15.33;64.86
30614;BME280;17381;51.690;5.270;2023-05-21T06:07:24;101773.25;;;15.31;65.15
30614;BME280;17381;51.690;5.270;2023-05-21T06:10:07;101780.97;;;15.38;64.97
30614;BME280;17381;51.690;5.270;2023-05-21T06:12:52;101789.63;;;15.43;65.23
30614;BME280;17381;51.690;5.270;2023-05-21T06:15:37;101786.97;;;15.45;65.34
30614;BME280;17381;51.690;5.270;2023-05-21T06:18:20;101728.97;;;15.08;65.45
30614;BME280;17381;51.690;5.270;2023-05-21T06:20:52;101780.97;;;15.38;65.41
30614;BME280;17381;51.690;5.270;2023-05-21T06:23:49;101772.97;;;15.40;65.25
30614;BME280;17381;51.690;5.270;2023-05-21T06:26:48;101730.34;;;15.19;65.23
30614;BME280;17381;51.690;5.270;2023-05-21T06:29:33;101787.53;;;15.55;65.58
30614;BME280;17381;51.690;5.270;2023-05-21T06:32:44;101784.75;;;15.59;65.63
30614;BME280;17381;51.690;5.270;2023-05-21T06:35:51;101790.91;;;15.60;65.61
30614;BME280;17381;51.690;5.270;2023-05-21T06:41:50;101778.31;;;15.66;65.67
30614;BME280;17381;51.690;5.270;2023-05-21T06:45:06;101781.78;;;15.70;65.54
30614;BME280;17381;51.690;5.270;2023-05-21T06:48:05;101795.69;;;15.77;65.75
30614;BME280;17381;51.690;5.270;2023-05-21T06:51:11;101778.00;;;15.77;66.20
30614;BME280;17381;51.690;5.270;2023-05-21T06:53:54;101778.66;;;15.85;65.82
30614;BME280;17381;51.690;5.270;2023-05-21T06:56:50;101781.94;;;15.92;65.86
30614;BME280;17381;51.690;5.270;2023-05-21T06:59:54;101754.88;;;15.82;65.91
30614;BME280;17381;51.690;5.270;2023-05-21T07:02:55;101777.22;;;16.02;65.89
30614;BME280;17381;51.690;5.270;2023-05-21T07:05:37;101771.19;;;15.97;65.63
30614;BME280;17381;51.690;5.270;2023-05-21T07:08:38;101781.44;;;16.07;65.60
30614;BME280;17381;51.690;5.270;2023-05-21T07:11:36;101760.44;;;16.01;65.54
30614;BME280;17381;51.690;5.270;2023-05-21T07:14:21;101778.53;;;16.15;65.19
30614;BME280;17381;51.690;5.270;2023-05-21T07:16:58;101739.22;;;16.01;65.64
30614;BME280;17381;51.690;5.270;2023-05-21T07:19:45;101765.78;;;16.26;65.29
30614;BME280;17381;51.690;5.270;2023-05-21T07:23:04;101769.13;;;16.31;65.20
30614;BME280;17381;51.690;5.270;2023-05-21T07:26:24;101763.66;;;16.36;65.14
30614;BME280;17381;51.690;5.270;2023-05-21T07:29:16;101769.78;;;16.38;65.22
30614;BME280;17381;51.690;5.270;2023-05-21T07:32:15;101767.84;;;16.43;65.31
30614;BME280;17381;51.690;5.270;2023-05-21T07:35:15;101787.66;;;16.58;65.40
30614;BME280;17381;51.690;5.270;2023-05-21T07:38:22;101766.19;;;16.64;65.17
30614;BME280;17381;51.690;5.270;2023-05-21T07:41:21;101768.66;;;16.70;64.81
30614;BME280;17381;51.690;5.270;2023-05-21T07:47:02;101747.41;;;16.70;64.63
30614;BME280;17381;51.690;5.270;2023-05-21T07:49:51;101702.06;;;16.51;64.99
30614;BME280;17381;51.690;5.270;2023-05-21T07:52:29;101757.94;;;16.97;65.05
30614;BME280;17381;51.690;5.270;2023-05-21T07:55:15;101759.06;;;17.13;64.59
30614;BME280;17381;51.690;5.270;2023-05-21T08:01:12;101752.19;;;17.31;64.29
30614;BME280;17381;51.690;5.270;2023-05-21T08:07:12;101765.38;;;17.56;64.34
30614;BME280;17381;51.690;5.270;2023-05-21T08:10:05;101756.03;;;17.68;64.25
30614;BME280;17381;51.690;5.270;2023-05-21T08:15:53;101771.28;;;17.86;63.18
30614;BME280;17381;51.690;5.270;2023-05-21T08:18:44;101762.34;;;17.87;62.64
30614;BME280;17381;51.690;5.270;2023-05-21T08:21:37;101759.16;;;17.79;62.35
30614;BME280;17381;51.690;5.270;2023-05-21T08:24:29;101770.16;;;17.92;63.14
30614;BME280;17381;51.690;5.270;2023-05-21T08:27:32;101759.38;;;17.95;62.76
30614;BME280;17381;51.690;5.270;2023-05-21T08:30:30;101762.56;;;18.03;62.55
30614;BME280;17381;51.690;5.270;2023-05-21T08:33:26;101759.59;;;18.11;62.47
30614;BME280;17381;51.690;5.270;2023-05-21T08:36:20;101753.88;;;18.20;62.78
30614;BME280;17381;51.690;5.270;2023-05-21T08:39:33;101755.00;;;18.35;62.94
30614;BME280;17381;51.690;5.270;2023-05-21T08:42:16;101751.09;;;18.44;62.29
30614;BME280;17381;51.690;5.270;2023-05-21T08:45:08;101736.34;;;18.56;62.15
30614;BME280;17381;51.690;5.270;2023-05-21T08:48:21;101743.78;;;18.68;62.06
30614;BME280;17381;51.690;5.270;2023-05-21T08:51:04;101737.16;;;18.78;62.11
30614;BME280;17381;51.690;5.270;2023-05-21T08:54:02;101733.41;;;18.82;61.56
30614;BME280;17381;51.690;5.270;2023-05-21T08:56:57;101730.81;;;19.00;61.37
30614;BME280;17381;51.690;5.270;2023-05-21T08:59:39;101729.69;;;19.05;61.00
30614;BME280;17381;51.690;5.270;2023-05-21T09:02:36;101729.22;;;19.14;61.13
30614;BME280;17381;51.690;5.270;2023-05-21T09:05:43;101729.47;;;19.29;61.21
30614;BME280;17381;51.690;5.270;2023-05-21T09:08:59;101723.44;;;19.43;60.69
30614;BME280;17381;51.690;5.270;2023-05-21T09:15:02;101733.19;;;19.61;59.56
30614;BME280;17381;51.690;5.270;2023-05-21T09:18:17;101731.13;;;19.68;59.70
30614;BME280;17381;51.690;5.270;2023-05-21T09:21:31;101730.91;;;19.72;59.64
30614;BME280;17381;51.690;5.270;2023-05-21T09:24:20;101727.94;;;19.78;59.05
30614;BME280;17381;51.690;5.270;2023-05-21T09:27:39;101710.91;;;19.81;59.36
30614;BME280;17381;51.690;5.270;2023-05-21T09:30:29;101728.97;;;19.93;59.28
30614;BME280;17381;51.690;5.270;2023-05-21T09:33:02;101710.91;;;19.98;59.70
30614;BME280;17381;51.690;5.270;2023-05-21T09:35:43;101730.28;;;20.19;59.43
30614;BME280;17381;51.690;5.270;2023-05-21T09:38:43;101720.06;;;20.27;58.82
30614;BME280;17381;51.690;5.270;2023-05-21T09:41:36;101713.31;;;20.38;58.97
30614;BME280;17381;51.690;5.270;2023-05-21T09:44:35;101707.22;;;20.52;58.27
30614;BME280;17381;51.690;5.270;2023-05-21T09:47:32;101716.44;;;20.63;57.69
30614;BME280;17381;51.690;5.270;2023-05-21T09:50:41;101708.38;;;20.81;57.95
30614;BME280;17381;51.690;5.270;2023-05-21T09:53:53;101697.56;;;20.98;57.44
30614;BME280;17381;51.690;5.270;2023-05-21T09:57:04;101705.44;;;21.17;57.26
30614;BME280;17381;51.690;5.270;2023-05-21T10:00:08;101698.03;;;21.38;57.65
30614;BME280;17381;51.690;5.270;2023-05-21T10:03:44;101709.38;;;21.58;56.99
30614;BME280;17381;51.690;5.270;2023-05-21T10:06:54;101696.94;;;21.72;57.54
30614;BME280;17381;51.690;5.270;2023-05-21T10:10:01;101695.19;;;22.02;56.35
30614;BME280;17381;51.690;5.270;2023-05-21T10:13:20;101703.13;;;22.33;56.01
30614;BME280;17381;51.690;5.270;2023-05-21T10:15:58;101644.75;;;22.24;53.17
30614;BME280;17381;51.690;5.270;2023-05-21T10:22:10;101681.38;;;22.81;53.58
30614;BME280;17381;51.690;5.270;2023-05-21T10:28:14;101685.06;;;23.21;52.72
30614;BME280;17381;51.690;5.270;2023-05-21T10:31:30;101685.09;;;23.34;50.70
30614;BME280;17381;51.690;5.270;2023-05-21T10:38:01;101665.19;;;23.51;50.96
30614;BME280;17381;51.690;5.270;2023-05-21T10:52:42;101656.84;;;23.68;51.05
30614;BME280;17381;51.690;5.270;2023-05-21T11:02:25;101632.84;;;24.56;49.16
30614;BME280;17381;51.690;5.270;2023-05-21T11:08:34;101636.81;;;25.24;49.01
30614;BME280;17381;51.690;5.270;2023-05-21T11:12:00;101630.00;;;25.32;47.40
30614;BME280;17381;51.690;5.270;2023-05-21T11:15:05;101624.75;;;25.30;48.50
30614;BME280;17381;51.690;5.270;2023-05-21T11:17:51;101627.44;;;25.30;47.10
30614;BME280;17381;51.690;5.270;2023-05-21T11:21:16;101628.97;;;25.21;46.34
30614;BME280;17381;51.690;5.270;2023-05-21T11:24:13;101615.66;;;25.20;47.26
30614;BME280;17381;51.690;5.270;2023-05-21T11:27:06;101615.69;;;25.07;47.42
30614;BME280;17381;51.690;5.270;2023-05-21T11:33:46;101611.88;;;25.22;49.04
30614;BME280;17381;51.690;5.270;2023-05-21T11:36:51;101588.00;;;25.53;47.74
30614;BME280;17381;51.690;5.270;2023-05-21T11:43:39;101586.00;;;26.36;45.75
30614;BME280;17381;51.690;5.270;2023-05-21T11:47:04;101592.78;;;26.85;45.71
30614;BME280;17381;51.690;5.270;2023-05-21T11:49:57;101580.31;;;27.16;44.99
30614;BME280;17381;51.690;5.270;2023-05-21T11:52:57;101503.56;;;26.97;43.20
30614;BME280;17381;51.690;5.270;2023-05-21T11:55:52;101564.00;;;27.17;43.05
30614;BME280;17381;51.690;5.270;2023-05-21T12:01:39;101567.13;;;27.76;44.28
30614;BME280;17381;51.690;5.270;2023-05-21T12:04:50;101565.81;;;27.91;40.47
30614;BME280;17381;51.690;5.270;2023-05-21T12:07:52;101533.78;;;27.87;43.32
30614;BME280;17381;51.690;5.270;2023-05-21T12:10:45;101556.00;;;28.00;41.13
30614;BME280;17381;51.690;5.270;2023-05-21T12:13:59;101544.81;;;28.04;42.10
30614;BME280;17381;51.690;5.270;2023-05-21T12:17:57;101546.25;;;28.18;42.94
30614;BME280;17381;51.690;5.270;2023-05-21T12:20:49;101547.56;;;28.24;41.19
30614;BME280;17381;51.690;5.270;2023-05-21T12:23:37;101540.63;;;28.31;40.60
30614;BME280;17381;51.690;5.270;2023-05-21T12:26:29;101540.13;;;28.07;42.64
30614;BME280;17381;51.690;5.270;2023-05-21T12:29:31;101544.66;;;28.06;43.60
30614;BME280;17381;51.690;5.270;2023-05-21T12:32:56;101509.16;;;27.90;43.02
30614;BME280;17381;51.690;5.270;2023-05-21T12:35:39;101550.59;;;28.00;42.25
30614;BME280;17381;51.690;5.270;2023-05-21T12:38:47;101549.16;;;27.75;41.84
30614;BME280;17381;51.690;5.270;2023-05-21T12:41:44;101550.06;;;27.33;42.25
30614;BME280;17381;51.690;5.270;2023-05-21T12:44:29;101498.78;;;26.69;42.33
30614;BME280;17381;51.690;5.270;2023-05-21T12:47:24;101555.97;;;26.95;44.66
30614;BME280;17381;51.690;5.270;2023-05-21T12:50:25;101560.50;;;27.06;43.14
30614;BME280;17381;51.690;5.270;2023-05-21T12:53:22;101566.44;;;27.21;44.74
30614;BME280;17381;51.690;5.270;2023-05-21T12:56:22;101558.69;;;27.27;42.96
30614;BME280;17381;51.690;5.270;2023-05-21T12:59:17;101545.72;;;27.42;43.56
30614;BME280;17381;51.690;5.270;2023-05-21T13:05:39;101555.47;;;28.06;44.39
30614;BME280;17381;51.690;5.270;2023-05-21T13:08:57;101560.84;;;28.37;42.68
30614;BME280;17381;51.690;5.270;2023-05-21T13:14:43;101550.81;;;28.48;40.51
30614;BME280;17381;51.690;5.270;2023-05-21T13:17:28;101472.09;;;28.01;42.51
30614;BME280;17381;51.690;5.270;2023-05-21T13:23:45;101548.22;;;28.47;41.65
30614;BME280;17381;51.690;5.270;2023-05-21T13:26:53;101543.69;;;28.47;41.25
30614;BME280;17381;51.690;5.270;2023-05-21T13:29:47;101541.44;;;28.72;42.93
30614;BME280;17381;51.690;5.270;2023-05-21T13:33:05;101479.91;;;28.74;42.30
30614;BME280;17381;51.690;5.270;2023-05-21T13:36:04;101546.72;;;29.22;40.88
30614;BME280;17381;51.690;5.270;2023-05-21T13:39:21;101546.72;;;29.42;42.94
30614;BME280;17381;51.690;5.270;2023-05-21T13:42:13;101543.41;;;29.67;39.71
30614;BME280;17381;51.690;5.270;2023-05-21T13:45:21;101544.53;;;29.74;39.05
30614;BME280;17381;51.690;5.270;2023-05-21T13:48:39;101473.34;;;29.25;39.74
30614;BME280;17381;51.690;5.270;2023-05-21T13:51:52;101538.25;;;29.64;39.31
30614;BME280;17381;51.690;5.270;2023-05-21T13:54:50;101538.59;;;29.98;41.09
30614;BME280;17381;51.690;5.270;2023-05-21T13:57:52;101491.34;;;30.01;40.38
30614;BME280;17381;51.690;5.270;2023-05-21T14:00:45;101511.38;;;30.18;39.48
30614;BME280;17381;51.690;5.270;2023-05-21T14:03:34;101497.94;;;29.89;39.14
30614;BME280;17381;51.690;5.270;2023-05-21T14:06:29;101537.50;;;29.82;38.17
30614;BME280;17381;51.690;5.270;2023-05-21T14:11:57;101449.41;;;28.91;40.43
30614;BME280;17381;51.690;5.270;2023-05-21T14:15:16;101527.41;;;29.64;40.62
30614;BME280;17381;51.690;5.270;2023-05-21T14:18:31;101522.19;;;30.00;39.71
30614;BME280;17381;51.690;5.270;2023-05-21T14:21:32;101503.28;;;30.08;40.24
30614;BME280;17381;51.690;5.270;2023-05-21T14:24:28;101522.13;;;30.37;39.02
30614;BME280;17381;51.690;5.270;2023-05-21T14:27:13;101515.63;;;30.48;38.38
30614;BME280;17381;51.690;5.270;2023-05-21T14:30:29;101515.47;;;30.32;37.32
30614;BME280;17381;51.690;5.270;2023-05-21T14:33:09;101507.50;;;29.93;38.05
30614;BME280;17381;51.690;5.270;2023-05-21T14:36:01;101504.69;;;29.85;39.55
30614;BME280;17381;51.690;5.270;2023-05-21T14:39:12;101497.38;;;29.95;39.53
30614;BME280;17381;51.690;5.270;2023-05-21T14:41:53;101495.88;;;30.10;39.11
30614;BME280;17381;51.690;5.270;2023-05-21T14:44:57;101460.00;;;29.89;38.80
30614;BME280;17381;51.690;5.270;2023-05-21T14:47:51;101493.38;;;30.27;40.90
30614;BME280;17381;51.690;5.270;2023-05-21T14:50:48;101456.16;;;29.82;38.96
30614;BME280;17381;51.690;5.270;2023-05-21T14:53:33;101485.00;;;29.83;39.39
30614;BME280;17381;51.690;5.270;2023-05-21T14:56:20;101492.16;;;29.74;37.92
30614;BME280;17381;51.690;5.270;2023-05-21T14:59:05;101484.19;;;29.72;39.25
30614;BME280;17381;51.690;5.270;2023-05-21T15:01:54;101484.34;;;29.61;39.40
30614;BME280;17381;51.690;5.270;2023-05-21T15:04:59;101477.25;;;29.50;38.50
30614;BME280;17381;51.690;5.270;2023-05-21T15:07:54;101464.41;;;29.52;38.99
30614;BME280;17381;51.690;5.270;2023-05-21T15:10:39;101472.81;;;29.59;40.45
30614;BME280;17381;51.690;5.270;2023-05-21T15:13:32;101419.88;;;29.55;41.36
30614;BME280;17381;51.690;5.270;2023-05-21T15:16:38;101461.19;;;30.04;39.55
30614;BME280;17381;51.690;5.270;2023-05-21T15:19:31;101455.84;;;30.12;40.77
30614;BME280;17381;51.690;5.270;2023-05-21T15:22:18;101427.94;;;30.02;40.36
30614;BME280;17381;51.690;5.270;2023-05-21T15:25:17;101466.66;;;30.22;40.19
30614;BME280;17381;51.690;5.270;2023-05-21T15:28:19;101435.88;;;30.13;40.88
30614;BME280;17381;51.690;5.270;2023-05-21T15:31:10;101471.72;;;30.07;37.45
30614;BME280;17381;51.690;5.270;2023-05-21T15:33:51;101466.84;;;29.93;39.26
30614;BME280;17381;51.690;5.270;2023-05-21T15:36:58;101464.03;;;29.85;39.42
30614;BME280;17381;51.690;5.270;2023-05-21T15:43:10;101464.94;;;29.66;40.63
30614;BME280;17381;51.690;5.270;2023-05-21T15:46:02;101476.06;;;29.72;41.47
30614;BME280;17381;51.690;5.270;2023-05-21T15:48:59;101466.75;;;29.85;40.98
30614;BME280;17381;51.690;5.270;2023-05-21T15:51:53;101471.09;;;29.95;41.32
30614;BME280;17381;51.690;5.270;2023-05-21T15:54:40;101467.63;;;30.03;40.14
30614;BME280;17381;51.690;5.270;2023-05-21T15:57:38;101455.78;;;30.04;40.83
30614;BME280;17381;51.690;5.270;2023-05-21T16:00:28;101453.22;;;30.03;41.57
30614;BME280;17381;51.690;5.270;2023-05-21T16:03:21;101465.47;;;30.07;40.54
30614;BME280;17381;51.690;5.270;2023-05-21T16:06:10;101469.94;;;29.98;40.85
30614;BME280;17381;51.690;5.270;2023-05-21T16:08:54;101469.31;;;30.04;41.89
30614;BME280;17381;51.690;5.270;2023-05-21T16:11:37;101473.09;;;29.93;40.24
30614;BME280;17381;51.690;5.270;2023-05-21T16:14:27;101474.91;;;29.75;41.44
30614;BME280;17381;51.690;5.270;2023-05-21T16:17:27;101438.91;;;29.45;41.36
30614;BME280;17381;51.690;5.270;2023-05-21T16:20:11;101479.09;;;29.50;41.26
30614;BME280;17381;51.690;5.270;2023-05-21T16:22:58;101437.84;;;29.19;41.75
30614;BME280;17381;51.690;5.270;2023-05-21T16:25:44;101481.81;;;29.40;42.25
30614;BME280;17381;51.690;5.270;2023-05-21T16:28:40;101482.00;;;29.39;41.94
30614;BME280;17381;51.690;5.270;2023-05-21T16:31:25;101471.31;;;29.27;41.92
30614;BME280;17381;51.690;5.270;2023-05-21T16:34:31;101449.13;;;28.95;41.31
30614;BME280;17381;51.690;5.270;2023-05-21T16:37:43;101477.91;;;28.96;42.52
30614;BME280;17381;51.690;5.270;2023-05-21T16:40:25;101467.78;;;28.78;42.45
30614;BME280;17381;51.690;5.270;2023-05-21T16:43:16;101487.31;;;28.72;42.72